createdAt,value
2023-05-10T00:05:21.355Z,51.76
2023-05-10T00:10:43.744Z,52.19
2023-05-10T00:16:06.028Z,52.87
2023-05-10T00:21:29.718Z,53.42
2023-05-10T00:26:51.974Z,53.45
2023-05-10T00:32:15.183Z,53.90
2023-05-10T00:37:37.616Z,54.36
2023-05-10T00:43:01.772Z,54.72
2023-05-10T00:48:24.385Z,55.22
2023-05-10T00:53:48.175Z,55.46
2023-05-10T00:59:10.615Z,55.75
2023-05-10T01:04:33.836Z,56.09
2023-05-10T01:09:56.795Z,56.27
2023-05-10T01:15:22.030Z,56.10
2023-05-10T01:20:47.709Z,55.97
2023-05-10T01:26:50.058Z,55.51
2023-05-10T01:32:35.524Z,55.69
2023-05-10T01:38:02.697Z,56.28
2023-05-10T01:43:30.178Z,56.68
2023-05-10T01:49:02.261Z,57.00
2023-05-10T01:54:27.512Z,57.25
2023-05-10T01:59:53.021Z,57.49
2023-05-10T02:05:16.865Z,57.75
2023-05-10T02:10:42.549Z,58.17
2023-05-10T02:16:10.635Z,58.26
2023-05-10T02:21:34.962Z,58.45
2023-05-10T02:26:59.361Z,58.70
2023-05-10T02:32:23.946Z,59.15
2023-05-10T02:37:47.809Z,59.28
2023-05-10T02:43:13.225Z,59.50
2023-05-10T02:48:35.830Z,59.52
2023-05-10T02:54:01.383Z,59.55
2023-05-10T02:59:23.643Z,59.77
2023-05-10T03:04:46.100Z,59.99
2023-05-10T03:10:08.973Z,60.08
2023-05-10T03:15:36.121Z,59.63
2023-05-10T03:26:41.037Z,59.10
2023-05-10T03:32:03.420Z,58.29
2023-05-10T03:37:25.669Z,58.35
2023-05-10T03:42:47.919Z,58.09
2023-05-10T03:48:10.990Z,57.97
2023-05-10T03:53:33.638Z,57.52
2023-05-10T03:58:56.095Z,56.98
2023-05-10T04:04:20.029Z,56.58
2023-05-10T04:09:42.630Z,55.98
2023-05-10T04:15:04.942Z,55.37
2023-05-10T04:20:27.703Z,54.94
2023-05-10T04:25:50.578Z,54.35
2023-05-10T04:31:18.657Z,54.05
2023-05-10T04:36:41.008Z,53.92
2023-05-10T04:42:04.129Z,53.66
2023-05-10T04:47:27.361Z,53.00
2023-05-10T04:52:49.671Z,52.57
2023-05-10T04:58:11.964Z,52.30
2023-05-10T05:03:34.841Z,52.20
2023-05-10T05:08:57.292Z,52.11
2023-05-10T05:14:21.229Z,51.94
2023-05-10T05:19:44.764Z,51.67
2023-05-10T05:25:08.592Z,51.42
2023-05-10T05:30:31.026Z,50.79
2023-05-10T05:35:55.821Z,50.29
2023-05-10T05:41:18.418Z,50.14
2023-05-10T05:46:40.727Z,49.26
2023-05-10T05:52:04.765Z,48.59
2023-05-10T05:57:27.886Z,48.24
2023-05-10T06:02:50.263Z,47.19
2023-05-10T06:08:13.520Z,46.38
2023-05-10T06:13:36.675Z,45.92
2023-05-10T06:18:59.017Z,45.40
2023-05-10T06:24:21.356Z,44.45
2023-05-10T06:29:43.686Z,43.91
2023-05-10T06:35:05.950Z,42.91
2023-05-10T06:40:28.752Z,41.13
2023-05-10T06:45:51.076Z,40.25
2023-05-10T06:51:13.370Z,39.39
2023-05-10T06:56:35.780Z,39.72
2023-05-10T07:01:58.162Z,39.14
2023-05-10T07:07:21.292Z,38.58
2023-05-10T07:12:44.578Z,37.64
2023-05-10T07:18:07.920Z,37.25
2023-05-10T07:23:31.246Z,36.57
2023-05-10T07:28:53.681Z,36.61
2023-05-10T07:34:16.710Z,36.81
2023-05-10T07:39:39.827Z,35.25
2023-05-10T07:45:02.271Z,35.10
2023-05-10T07:50:25.556Z,34.72
2023-05-10T07:55:48.090Z,33.28
2023-05-10T08:01:10.724Z,32.53
2023-05-10T08:06:34.685Z,32.90
2023-05-10T08:11:57.913Z,32.36
2023-05-10T08:17:22.127Z,32.09
2023-05-10T08:22:44.728Z,32.00
2023-05-10T08:28:07.220Z,31.92
2023-05-10T08:33:32.092Z,31.67
2023-05-10T08:38:54.968Z,31.96
2023-05-10T08:44:19.765Z,30.60
2023-05-10T08:49:44.412Z,30.49
2023-05-10T08:55:07.447Z,30.34
2023-05-10T09:00:32.041Z,29.96
2023-05-10T09:05:59.726Z,30.42
2023-05-10T09:11:22.989Z,29.71
2023-05-10T09:16:47.991Z,30.09
2023-05-10T09:22:10.324Z,29.56
2023-05-10T09:27:34.710Z,29.12
2023-05-10T09:33:01.971Z,29.07
2023-05-10T09:38:24.936Z,28.02
2023-05-10T09:43:48.780Z,28.85
2023-05-10T09:49:12.871Z,27.79
2023-05-10T09:54:36.419Z,27.66
2023-05-10T10:00:01.021Z,27.58
2023-05-10T10:05:25.308Z,27.60
2023-05-10T10:10:48.693Z,26.92
2023-05-10T10:16:12.105Z,26.30
2023-05-10T10:21:35.856Z,26.91
2023-05-10T10:27:00.351Z,26.68
2023-05-10T10:32:55.828Z,26.62
2023-05-10T10:38:20.339Z,26.41
2023-05-10T10:43:43.549Z,27.33
2023-05-10T10:49:24.531Z,26.47
2023-05-10T10:54:49.066Z,26.65
2023-05-10T11:00:36.830Z,26.16
2023-05-10T11:06:03.313Z,26.43
2023-05-10T11:11:28.657Z,26.41
2023-05-10T11:16:56.439Z,27.53
2023-05-10T11:22:27.525Z,27.01
2023-05-10T11:27:51.308Z,26.12
2023-05-10T11:33:14.028Z,26.10
2023-05-10T11:38:36.817Z,25.79
2023-05-10T11:44:01.110Z,25.26
2023-05-10T11:49:25.038Z,25.39
2023-05-10T11:54:55.103Z,25.80
2023-05-10T12:00:19.456Z,24.42
2023-05-10T12:05:44.346Z,24.72
2023-05-10T12:11:15.639Z,23.73
2023-05-10T12:16:41.254Z,23.45
2023-05-10T12:22:03.976Z,24.55
2023-05-10T12:33:12.311Z,22.89
2023-05-10T12:38:54.084Z,22.71
2023-05-10T12:44:16.387Z,22.55
2023-05-10T12:49:38.988Z,22.77
2023-05-10T12:55:01.799Z,22.01
2023-05-10T13:00:25.415Z,21.47
2023-05-10T13:05:47.927Z,22.28
2023-05-10T13:11:11.037Z,21.92
2023-05-10T13:16:33.605Z,22.47
2023-05-10T13:21:56.574Z,22.74
2023-05-10T13:27:19.598Z,23.54
2023-05-10T13:32:42.339Z,23.22
2023-05-10T13:38:04.902Z,21.76
2023-05-10T13:43:27.863Z,21.96
2023-05-10T13:48:51.119Z,22.76
2023-05-10T13:54:13.812Z,23.19
2023-05-10T13:59:36.912Z,22.91
2023-05-10T14:05:02.790Z,23.03
2023-05-10T14:10:27.184Z,23.00
2023-05-10T14:15:49.669Z,24.12
2023-05-10T14:21:12.124Z,23.13
2023-05-10T14:26:35.508Z,22.43
2023-05-10T14:31:57.915Z,22.67
2023-05-10T14:37:21.288Z,22.74
2023-05-10T14:42:44.839Z,22.71
2023-05-10T14:48:09.436Z,23.25
2023-05-10T14:53:32.150Z,23.15
2023-05-10T14:58:55.826Z,23.36
2023-05-10T15:04:19.163Z,23.74
2023-05-10T15:09:42.322Z,23.97
2023-05-10T15:15:05.129Z,23.09
2023-05-10T15:20:28.077Z,22.69
2023-05-10T15:25:52.045Z,23.16
2023-05-10T15:31:14.849Z,23.37
2023-05-10T15:36:37.378Z,23.04
2023-05-10T15:42:00.248Z,23.91
2023-05-10T15:47:22.644Z,23.07
2023-05-10T15:52:45.553Z,23.10
2023-05-10T15:58:08.013Z,23.16
2023-05-10T16:03:31.177Z,23.97
2023-05-10T16:08:54.668Z,23.74
2023-05-10T16:14:17.682Z,23.07
2023-05-10T16:19:40.075Z,23.64
2023-05-10T16:25:04.506Z,24.27
2023-05-10T16:30:29.318Z,23.41
2023-05-10T16:35:51.926Z,23.72
2023-05-10T16:41:17.677Z,24.44
2023-05-10T16:46:41.274Z,23.91
2023-05-10T16:52:03.634Z,23.84
2023-05-10T16:57:26.049Z,24.42
2023-05-10T17:02:49.643Z,24.78
2023-05-10T17:08:12.748Z,24.43
2023-05-10T17:13:35.883Z,24.36
2023-05-10T17:19:01.375Z,25.06
2023-05-10T17:24:24.103Z,24.99
2023-05-10T17:29:46.444Z,25.28
2023-05-10T17:35:09.245Z,25.51
2023-05-10T17:40:32.348Z,26.23
2023-05-10T17:45:56.385Z,26.55
2023-05-10T17:51:18.952Z,27.86
2023-05-10T17:56:41.361Z,28.15
2023-05-10T18:02:03.802Z,28.63
2023-05-10T18:07:28.692Z,29.30
2023-05-10T18:12:54.027Z,29.95
2023-05-10T18:18:17.746Z,30.57
2023-05-10T18:23:40.140Z,30.75
2023-05-10T18:29:02.862Z,31.16
2023-05-10T18:34:25.713Z,31.71
2023-05-10T18:39:51.366Z,32.22
2023-05-10T18:45:14.558Z,32.99
2023-05-10T18:50:37.023Z,33.11
2023-05-10T18:56:02.576Z,33.70
2023-05-10T19:01:24.863Z,33.73
2023-05-10T19:06:47.748Z,33.84
2023-05-10T19:12:10.584Z,34.11
2023-05-10T19:17:34.329Z,34.28
2023-05-10T19:23:09.253Z,34.39
2023-05-10T19:28:21.570Z,34.97
2023-05-10T19:33:43.936Z,35.27
2023-05-10T19:39:06.301Z,35.94
2023-05-10T19:44:29.560Z,36.45
2023-05-10T19:49:51.997Z,36.98
2023-05-10T19:55:15.152Z,37.10
2023-05-10T20:00:38.317Z,37.46
2023-05-10T20:06:00.777Z,37.60
2023-05-10T20:11:23.773Z,37.59
2023-05-10T20:16:46.350Z,37.87
2023-05-10T20:22:09.900Z,38.13
2023-05-10T20:27:32.859Z,38.15
2023-05-10T20:32:55.328Z,38.52
2023-05-10T20:38:18.422Z,38.93
2023-05-10T20:43:40.761Z,39.02
2023-05-10T20:49:03.686Z,39.07
2023-05-10T20:54:27.649Z,39.29
2023-05-10T20:59:50.257Z,39.54
2023-05-10T21:05:12.836Z,39.89
2023-05-10T21:10:35.175Z,40.26
2023-05-10T21:15:57.539Z,40.42
2023-05-10T21:21:19.836Z,40.17
2023-05-10T21:26:42.771Z,40.42
2023-05-10T21:32:05.081Z,40.64
2023-05-10T21:37:28.257Z,40.88
2023-05-10T21:42:50.778Z,41.23
2023-05-10T21:48:13.674Z,41.43
2023-05-10T21:53:36.082Z,41.54
2023-05-10T21:58:58.400Z,41.90
2023-05-10T22:04:21.043Z,42.05
2023-05-10T22:09:44.391Z,42.05
2023-05-10T22:15:10.269Z,42.23
2023-05-10T22:20:30.974Z,42.41
2023-05-10T22:25:53.265Z,42.65
2023-05-10T22:31:16.583Z,43.10
2023-05-10T22:36:39.029Z,43.16
2023-05-10T22:42:01.375Z,43.51
2023-05-10T22:47:23.773Z,43.57
2023-05-10T22:52:47.192Z,43.80
2023-05-10T22:58:09.698Z,43.21
2023-05-10T23:03:31.923Z,43.17
2023-05-10T23:08:54.468Z,43.60
2023-05-10T23:14:17.261Z,43.66
2023-05-10T23:19:39.574Z,43.84
2023-05-10T23:25:01.924Z,44.15
2023-05-10T23:30:24.915Z,44.27
2023-05-10T23:35:47.228Z,44.26
2023-05-10T23:41:09.601Z,44.52
2023-05-10T23:46:32.016Z,45.10
2023-05-10T23:51:54.472Z,45.51
2023-05-10T23:57:16.840Z,45.74
